Time;durP1;ratioP1;P1;durP2;ratioP2;P2;SDS_P1;SDS_P2;PMS_P1;PMS_P2;Temp;Humidity;BMP_temperature;BMP_pressure;BME280_temperature;BME280_humidity;BME280_pressure;Samples;Min_cycle;Max_cycle;Signal;HPM_P1;HPM_P2
2022/10/04 00:00:27;;;;;;;0.20;0.20;;;;;;;7.09;85.62;93561.06;5074866;28;20028;-34
2022/10/04 00:03:00;;;;;;;0.20;0.20;;;;;;;7.14;85.87;93568.50;5085203;28;20016;-34
2022/10/04 00:05:26;;;;;;;0.75;0.75;;;;;;;7.11;86.34;93564.03;5088786;28;20047;-34
2022/10/04 00:07:54;;;;;;;0.65;0.65;;;;;;;7.17;86.40;93570.16;5085812;28;20016;-34
2022/10/04 00:10:23;;;;;;;0.55;0.55;;;;;;;7.21;86.17;93562.34;5071805;28;20081;-34
2022/10/04 00:13:00;;;;;;;0.20;0.20;;;;;;;7.18;85.96;93559.94;5069063;28;20107;-34
2022/10/04 00:15:29;;;;;;;0.43;0.43;;;;;;;7.21;86.05;93550.66;5079289;28;20020;-34
2022/10/04 00:18:18;;;;;;;0.30;0.30;;;;;;;7.31;85.71;93555.22;5083604;28;20020;-34
2022/10/04 00:20:49;;;;;;;0.30;0.30;;;;;;;7.30;84.47;93548.22;5085196;28;20377;-34
2022/10/04 00:23:24;;;;;;;0.50;0.50;;;;;;;7.42;82.41;93555.03;5079675;28;20511;-34
2022/10/04 00:25:50;;;;;;;0.55;0.55;;;;;;;7.38;82.39;93557.34;5083225;28;20031;-34
2022/10/04 00:28:27;;;;;;;0.20;0.20;;;;;;;7.32;79.11;93561.47;5082041;28;20031;-34
2022/10/04 00:31:11;;;;;;;0.20;0.20;;;;;;;7.28;79.72;93553.50;5086656;28;20048;-34
2022/10/04 00:33:48;;;;;;;0.40;0.40;;;;;;;7.15;80.50;93550.00;5084738;28;20028;-34
2022/10/04 00:36:23;;;;;;;0.28;0.28;;;;;;;7.18;80.67;93554.44;5081699;28;20050;-34
2022/10/04 00:39:04;;;;;;;0.20;0.20;;;;;;;7.15;80.06;93541.75;5080920;28;20028;-34
2022/10/04 00:42:00;;;;;;;0.30;0.30;;;;;;;7.02;81.78;93550.69;5079901;28;20020;-34
2022/10/04 00:44:43;;;;;;;0.95;0.95;;;;;;;6.81;82.55;93538.81;5088152;28;20047;-34
2022/10/04 00:47:30;;;;;;;0.60;0.60;;;;;;;7.04;80.59;93542.66;5087359;28;20028;-34
2022/10/04 00:50:20;;;;;;;0.47;0.47;;;;;;;6.82;80.50;93546.50;5084864;28;20055;-34
2022/10/04 00:52:57;;;;;;;0.30;0.30;;;;;;;6.91;79.77;93539.88;5052992;28;20440;-34
2022/10/04 00:55:43;;;;;;;0.28;0.28;;;;;;;6.85;79.37;93539.25;5069990;28;20026;-34
2022/10/04 00:58:24;;;;;;;0.40;0.40;;;;;;;6.69;80.04;93524.50;5083830;28;20032;-34
2022/10/04 01:00:51;;;;;;;0.40;0.40;;;;;;;6.66;80.22;93539.28;5084721;28;20016;-34
2022/10/04 01:03:27;;;;;;;1.25;1.15;;;;;;;6.76;80.17;93540.38;5063243;28;20024;-34
2022/10/04 01:05:58;;;;;;;0.40;0.40;;;;;;;6.64;79.77;93527.34;5069734;28;20016;-34
2022/10/04 01:08:45;;;;;;;0.45;0.45;;;;;;;6.80;79.30;93545.53;5060338;28;20021;-34
2022/10/04 01:11:10;;;;;;;0.30;0.30;;;;;;;6.75;79.60;93543.63;5086682;28;20020;-34
2022/10/04 01:13:39;;;;;;;0.40;0.40;;;;;;;6.60;80.47;93543.38;5088136;28;20031;-34
2022/10/04 01:16:10;;;;;;;0.40;0.40;;;;;;;6.65;80.09;93542.53;5063486;28;20021;-34
2022/10/04 01:18:36;;;;;;;0.32;0.32;;;;;;;6.73;78.71;93546.16;5080481;28;20502;-34
2022/10/04 01:21:26;;;;;;;0.30;0.30;;;;;;;6.69;77.85;93551.22;5083618;28;20094;-34
2022/10/04 01:23:51;;;;;;;0.45;0.45;;;;;;;6.56;77.91;93551.16;5080596;28;20027;-34
2022/10/04 01:26:28;;;;;;;0.30;0.30;;;;;;;6.34;78.63;93551.44;5082595;28;20020;-34
2022/10/04 01:29:18;;;;;;;0.30;0.30;;;;;;;6.31;78.33;93550.47;5085433;28;20024;-34
2022/10/04 01:31:48;;;;;;;0.30;0.30;;;;;;;6.18;78.70;93541.44;5063347;28;20037;-34
2022/10/04 01:34:17;;;;;;;0.30;0.30;;;;;;;6.04;78.49;93559.81;5081047;28;20048;-34
2022/10/04 01:36:44;;;;;;;0.20;0.20;;;;;;;6.20;78.24;93560.84;5085095;28;20037;-34
2022/10/04 01:39:10;;;;;;;0.30;0.30;;;;;;;6.13;78.75;93559.44;5081649;28;20031;-34
2022/10/04 01:42:03;;;;;;;0.30;0.30;;;;;;;5.94;79.58;93553.94;5065817;28;20020;-34
2022/10/04 01:44:42;;;;;;;0.30;0.30;;;;;;;5.90;80.31;93553.50;5078877;28;20027;-34
2022/10/04 01:47:13;;;;;;;;;;;;;;;5.88;80.74;93556.00;5078691;28;20036;-34
2022/10/04 01:49:41;;;;;;;0.40;0.40;;;;;;;5.92;80.45;93553.72;5069584;28;19915;-34
2022/10/04 01:52:16;;;;;;;0.30;0.30;;;;;;;5.99;79.90;93539.44;5059897;28;20569;-34
2022/10/04 01:54:44;;;;;;;0.20;0.20;;;;;;;5.94;80.50;93553.94;5085775;28;20055;-34
2022/10/04 01:57:15;;;;;;;0.88;0.68;;;;;;;5.94;80.90;93559.41;5070321;28;20077;-34
2022/10/04 01:59:56;;;;;;;0.70;0.70;;;;;;;6.11;80.17;93557.22;5065009;28;20051;-34
2022/10/04 02:02:40;;;;;;;0.38;0.38;;;;;;;6.21;79.75;93557.59;5081171;28;20073;-34
2022/10/04 02:05:09;;;;;;;0.55;0.55;;;;;;;6.06;80.28;93560.75;5060841;28;20025;-34
2022/10/04 02:07:35;;;;;;;0.30;0.30;;;;;;;6.10;80.12;93565.97;5067168;28;20099;-34
2022/10/04 02:10:05;;;;;;;0.40;0.40;;;;;;;6.10;80.51;93563.22;5083861;28;20028;-34
2022/10/04 02:12:30;;;;;;;0.55;0.55;;;;;;;6.28;79.36;93559.00;5067993;28;20021;-34
2022/10/04 02:14:57;;;;;;;0.30;0.30;;;;;;;6.18;80.15;93560.63;5070844;28;20034;-34
2022/10/04 02:17:27;;;;;;;0.20;0.20;;;;;;;6.11;80.00;93572.91;5064116;28;20078;-34
2022/10/04 02:19:53;;;;;;;0.63;0.50;;;;;;;6.13;79.76;93564.19;5089744;28;20032;-34
2022/10/04 02:22:19;;;;;;;0.28;0.28;;;;;;;5.91;81.84;93562.47;5063521;28;20103;-34
2022/10/04 02:24:46;;;;;;;0.25;0.25;;;;;;;5.84;82.97;93563.78;5067812;28;20107;-34
2022/10/04 02:27:12;;;;;;;0.20;0.20;;;;;;;5.67;83.44;93552.22;5062787;28;20522;-34
2022/10/04 02:29:38;;;;;;;0.40;0.40;;;;;;;6.04;82.68;93568.03;5069951;28;20053;-34
2022/10/04 02:34:49;;;;;;;0.30;0.30;;;;;;;5.91;82.79;93576.16;5066997;28;20126;-34
2022/10/04 02:37:15;;;;;;;0.40;0.40;;;;;;;5.94;82.71;93578.59;5064716;28;20485;-34
2022/10/04 02:39:48;;;;;;;0.50;0.50;;;;;;;6.02;82.04;93587.72;5063480;28;20020;-34
2022/10/04 02:42:26;;;;;;;0.40;0.40;;;;;;;6.08;82.09;93587.66;5060719;28;20028;-34
2022/10/04 02:45:16;;;;;;;0.20;0.20;;;;;;;6.10;82.03;93583.16;5061879;28;20017;-34
2022/10/04 02:47:49;;;;;;;0.38;0.38;;;;;;;6.13;82.27;93590.31;5066264;28;20013;-34
2022/10/04 02:50:24;;;;;;;0.40;0.40;;;;;;;6.25;82.15;93598.44;5060403;28;20021;-34
2022/10/04 02:52:54;;;;;;;0.20;0.20;;;;;;;6.16;82.02;93596.03;5065658;28;20500;-34
2022/10/04 02:55:22;;;;;;;0.20;0.20;;;;;;;6.34;81.54;93604.28;5066175;28;20500;-34
2022/10/04 02:57:51;;;;;;;0.20;0.20;;;;;;;6.31;81.44;93593.59;5065288;28;20134;-34
2022/10/04 03:00:23;;;;;;;0.35;0.35;;;;;;;6.30;82.63;93603.84;5059958;28;20035;-34
2022/10/04 03:03:10;;;;;;;1.13;1.13;;;;;;;6.35;83.15;93610.50;5060621;28;20025;-34
2022/10/04 03:05:37;;;;;;;0.55;0.55;;;;;;;6.28;83.15;93605.63;5070256;28;20020;-34
2022/10/04 03:08:05;;;;;;;0.22;0.22;;;;;;;6.39;82.41;93617.19;5069423;28;20036;-34
2022/10/04 03:10:31;;;;;;;0.75;0.75;;;;;;;6.37;81.40;93618.94;5062859;28;20039;-34
2022/10/04 03:12:57;;;;;;;0.60;0.60;;;;;;;6.36;81.09;93622.97;5065732;28;20032;-34
2022/10/04 03:15:23;;;;;;;0.25;0.25;;;;;;;6.50;80.53;93613.56;5072519;28;20036;-34
2022/10/04 03:17:49;;;;;;;0.40;0.40;;;;;;;6.47;81.38;93620.84;5067178;28;20020;-34
2022/10/04 03:20:20;;;;;;;0.70;0.70;;;;;;;6.63;81.06;93619.88;5059518;28;20547;-34
2022/10/04 03:22:48;;;;;;;0.68;0.68;;;;;;;6.52;81.30;93624.78;5069396;28;20016;-34
2022/10/04 03:25:17;;;;;;;0.40;0.40;;;;;;;6.49;82.00;93612.84;5060986;28;20055;-34
2022/10/04 03:27:43;;;;;;;;;;;;;;;6.64;81.40;93613.13;5062207;28;20063;-34
2022/10/04 03:30:15;;;;;;;0.30;0.30;;;;;;;6.49;82.11;93625.81;5076921;28;20395;-34
2022/10/04 03:32:41;;;;;;;0.47;0.47;;;;;;;6.45;82.91;93615.13;5072410;28;20020;-34
2022/10/04 03:35:35;;;;;;;1.23;1.20;;;;;;;6.60;82.52;93609.19;5063842;28;20021;-34
2022/10/04 03:38:05;;;;;;;0.55;0.55;;;;;;;6.50;82.84;93608.81;5078634;28;20033;-34
2022/10/04 03:40:32;;;;;;;0.63;0.63;;;;;;;6.47;83.43;93620.09;5081927;28;20027;-34
2022/10/04 03:43:00;;;;;;;0.45;0.45;;;;;;;6.55;83.16;93613.50;5068339;28;20044;-34
2022/10/04 03:45:27;;;;;;;0.30;0.30;;;;;;;6.54;83.81;93614.03;5066674;28;20530;-34
2022/10/04 03:47:57;;;;;;;0.50;0.50;;;;;;;6.57;84.22;93618.44;5064360;28;20039;-34
2022/10/04 03:50:28;;;;;;;0.30;0.30;;;;;;;6.64;84.26;93615.13;5072013;28;20099;-34
2022/10/04 03:52:56;;;;;;;0.20;0.20;;;;;;;6.62;82.92;93612.16;5083600;28;20107;-34
2022/10/04 03:55:31;;;;;;;0.95;0.95;;;;;;;6.74;81.44;93618.97;5084248;28;20012;-34
2022/10/04 03:57:57;;;;;;;1.38;1.30;;;;;;;6.75;80.71;93621.22;5080989;28;20020;-34
2022/10/04 04:00:22;;;;;;;0.25;0.25;;;;;;;6.58;80.42;93619.94;5083010;28;20020;-34
2022/10/04 04:02:55;;;;;;;1.65;1.30;;;;;;;6.65;80.68;93627.56;5063946;28;20016;-34
2022/10/04 04:05:39;;;;;;;0.32;0.32;;;;;;;6.57;81.07;93643.16;5084733;28;20028;-34
2022/10/04 04:08:32;;;;;;;1.75;0.98;;;;;;;6.51;81.56;93626.03;5087685;28;20020;-34
2022/10/04 04:11:00;;;;;;;0.57;0.57;;;;;;;6.67;81.18;93647.03;5063588;28;20028;-34
2022/10/04 04:13:41;;;;;;;0.70;0.70;;;;;;;6.82;81.07;93639.81;5064896;28;20038;-34
2022/10/04 04:16:08;;;;;;;1.02;1.02;;;;;;;6.88;81.23;93645.97;5087280;28;20514;-34
2022/10/04 04:18:36;;;;;;;3.92;1.42;;;;;;;6.77;81.98;93643.38;5066173;28;20024;-34
2022/10/04 04:21:03;;;;;;;0.40;0.40;;;;;;;6.86;82.30;93636.78;5062664;28;20391;-34
2022/10/04 04:23:37;;;;;;;0.45;0.45;;;;;;;6.99;81.78;93649.81;5077765;28;20487;-34
2022/10/04 04:26:44;;;;;;;1.40;1.30;;;;;;;7.04;81.80;93649.72;5084725;28;20029;-34
2022/10/04 04:29:10;;;;;;;5.88;1.88;;;;;;;7.18;81.17;93659.53;5078866;28;20085;-35
2022/10/04 04:31:51;;;;;;;0.77;0.77;;;;;;;7.20;81.35;93654.25;5085224;28;20475;-34
2022/10/04 04:34:23;;;;;;;0.52;0.40;;;;;;;7.26;81.15;93654.91;5063415;28;20024;-34
2022/10/04 04:36:49;;;;;;;0.38;0.38;;;;;;;7.29;81.76;93648.38;5086211;28;20043;-34
2022/10/04 04:39:35;;;;;;;1.20;1.15;;;;;;;7.34;81.89;93649.56;5079679;28;20618;-34
2022/10/04 04:42:08;;;;;;;0.50;0.50;;;;;;;7.36;81.75;93645.00;5081385;28;20028;-34
2022/10/04 04:44:35;;;;;;;0.77;0.77;;;;;;;7.19;82.33;93649.28;5082349;28;20515;-34
2022/10/04 04:47:05;;;;;;;0.45;0.45;;;;;;;7.10;83.41;93658.66;5067559;28;20024;-34
2022/10/04 04:49:31;;;;;;;0.40;0.40;;;;;;;7.26;82.50;93660.41;5088522;28;20107;-34
2022/10/04 04:51:57;;;;;;;0.47;0.47;;;;;;;7.27;82.41;93661.91;5086821;28;20035;-34
2022/10/04 04:54:25;;;;;;;0.40;0.40;;;;;;;7.28;83.01;93670.84;5069188;28;20024;-34
2022/10/04 04:56:51;;;;;;;0.20;0.20;;;;;;;7.24;84.00;93668.41;5069420;28;20032;-34
2022/10/04 04:59:18;;;;;;;0.30;0.30;;;;;;;7.34;84.06;93672.25;5086835;28;20100;-34
2022/10/04 05:01:45;;;;;;;5.15;1.05;;;;;;;7.41;84.16;93666.16;5080407;28;20048;-34
2022/10/04 05:04:14;;;;;;;0.52;0.52;;;;;;;7.45;84.43;93666.59;5067823;28;20028;-34
2022/10/04 05:06:47;;;;;;;0.50;0.50;;;;;;;7.47;83.10;93668.84;5081112;28;20427;-34
2022/10/04 05:09:27;;;;;;;0.45;0.45;;;;;;;7.60;83.03;93677.84;5064958;28;20976;-34
2022/10/04 05:11:56;;;;;;;0.50;0.50;;;;;;;7.65;82.01;93670.78;5076457;28;20111;-34
2022/10/04 05:14:22;;;;;;;0.43;0.43;;;;;;;7.76;81.32;93675.34;5066806;28;20073;-34
2022/10/04 05:16:49;;;;;;;0.50;0.50;;;;;;;7.81;80.02;93661.53;5082664;28;20492;-34
2022/10/04 05:19:20;;;;;;;0.50;0.50;;;;;;;7.88;79.84;93676.66;5079325;28;20139;-34
2022/10/04 05:21:47;;;;;;;0.73;0.73;;;;;;;7.97;80.69;93676.97;5086200;28;20016;-34
2022/10/04 05:24:32;;;;;;;1.10;0.82;;;;;;;8.08;79.66;93676.78;5071348;28;20027;-34
2022/10/04 05:27:03;;;;;;;2.58;2.38;;;;;;;8.11;79.72;93683.25;5080013;28;20012;-34
2022/10/04 05:29:35;;;;;;;1.13;1.13;;;;;;;8.10;80.07;93677.00;5063815;28;20052;-34
2022/10/04 05:32:13;;;;;;;2.67;0.77;;;;;;;8.28;80.43;93681.72;5068390;28;20031;-34
2022/10/04 05:34:40;;;;;;;0.77;0.73;;;;;;;8.41;79.52;93683.72;5084996;28;20024;-34
2022/10/04 05:37:38;;;;;;;0.32;0.32;;;;;;;8.41;79.49;93686.47;5081330;28;20062;-35
2022/10/04 05:40:12;;;;;;;2.50;2.38;;;;;;;8.49;78.67;93684.56;5062344;28;20031;-35
2022/10/04 05:42:44;;;;;;;1.63;1.58;;;;;;;8.57;78.23;93688.19;5082233;28;20017;-35
2022/10/04 05:45:23;;;;;;;1.23;1.20;;;;;;;8.63;78.37;93683.28;5085648;28;20096;-35
2022/10/04 05:47:52;;;;;;;4.70;2.92;;;;;;;8.62;78.77;93687.31;5076381;28;20020;-34
2022/10/04 05:50:32;;;;;;;1.20;0.80;;;;;;;8.59;78.81;93679.38;5062431;28;20020;-34
2022/10/04 05:53:18;;;;;;;0.30;0.30;;;;;;;8.68;78.33;93690.72;5082864;28;20025;-34
2022/10/04 05:56:01;;;;;;;0.30;0.30;;;;;;;8.73;78.37;93689.84;5084805;28;20028;-34
2022/10/04 05:59:03;;;;;;;0.25;0.25;;;;;;;8.71;79.41;93691.63;5080226;28;20432;-34
2022/10/04 06:01:41;;;;;;;2.05;1.80;;;;;;;8.70;79.77;93698.44;5085302;28;20510;-34
2022/10/04 06:04:30;;;;;;;4.35;3.92;;;;;;;8.80;79.74;93702.97;5088876;28;20028;-34
2022/10/04 06:06:59;;;;;;;;;;;;;;;8.85;79.55;93704.88;5091703;28;20487;-34
2022/10/04 06:09:36;;;;;;;2.38;2.22;;;;;;;8.89;79.33;93710.81;5070084;28;20009;-34
2022/10/04 06:12:09;;;;;;;0.40;0.40;;;;;;;9.11;78.95;93717.88;5083304;28;20505;-34
2022/10/04 06:14:47;;;;;;;0.60;0.60;;;;;;;9.54;77.12;93720.19;5083738;28;20073;-34
2022/10/04 06:17:28;;;;;;;0.90;0.80;;;;;;;10.15;75.90;93716.75;5089230;28;20107;-34
2022/10/04 06:19:56;;;;;;;0.88;0.80;;;;;;;10.83;73.21;93710.97;5086255;28;20020;-34
2022/10/04 06:22:25;;;;;;;1.88;1.05;;;;;;;11.61;71.76;93712.22;5085959;28;20082;-34
2022/10/04 06:24:59;;;;;;;;;;;;;;;12.22;67.71;93719.31;5086307;28;20020;-34
2022/10/04 06:27:40;;;;;;;0.55;0.55;;;;;;;12.84;64.73;93715.97;5063391;28;20406;-35
2022/10/04 06:30:12;;;;;;;3.10;0.32;;;;;;;13.40;63.50;93717.50;5067341;28;20044;-35
2022/10/04 06:32:56;;;;;;;0.35;0.35;;;;;;;13.69;59.70;93718.66;5084029;28;20032;-35
2022/10/04 06:35:56;;;;;;;0.32;0.30;;;;;;;13.94;59.42;93715.94;5090850;28;20118;-35
2022/10/04 06:38:34;;;;;;;0.47;0.47;;;;;;;14.22;56.98;93712.78;5048470;28;20060;-35
2022/10/04 06:41:30;;;;;;;2.63;0.68;;;;;;;14.40;56.76;93728.97;5083341;28;20020;-35
2022/10/04 06:44:20;;;;;;;0.20;0.20;;;;;;;14.74;56.12;93722.03;5088397;28;20101;-35
2022/10/04 06:46:50;;;;;;;0.22;0.22;;;;;;;14.81;55.40;93721.94;5088545;28;20411;-35
2022/10/04 06:49:29;;;;;;;0.30;0.30;;;;;;;14.96;54.18;93732.22;5066109;28;20073;-35
2022/10/04 06:52:03;;;;;;;1.55;1.45;;;;;;;15.16;53.07;93731.06;5087472;28;20557;-35
2022/10/04 06:54:53;;;;;;;0.95;0.95;;;;;;;15.31;53.50;93730.91;5082434;28;20059;-35
2022/10/04 06:57:25;;;;;;;1.30;1.13;;;;;;;15.45;52.09;93729.28;5081600;28;20020;-35
2022/10/04 07:00:05;;;;;;;0.28;0.28;;;;;;;16.03;50.68;93730.41;5089082;28;20040;-35
2022/10/04 07:02:34;;;;;;;0.30;0.30;;;;;;;16.05;50.18;93733.34;5066944;28;20463;-35
2022/10/04 07:05:04;;;;;;;0.85;0.85;;;;;;;16.44;49.52;93720.34;5086230;28;20032;-35
2022/10/04 07:07:38;;;;;;;1.77;0.63;;;;;;;16.61;48.83;93726.59;5090846;28;20040;-35
2022/10/04 07:10:12;;;;;;;0.30;0.30;;;;;;;16.76;47.11;93739.56;5081204;28;20082;-35
2022/10/04 07:12:40;;;;;;;1.17;1.00;;;;;;;16.80;49.65;93733.56;5071016;28;20057;-35
2022/10/04 07:15:15;;;;;;;0.28;0.28;;;;;;;17.18;47.04;93733.63;5070688;28;20038;-35
2022/10/04 07:17:42;;;;;;;0.28;0.28;;;;;;;17.72;47.02;93734.84;5070622;28;20079;-35
2022/10/04 07:20:21;;;;;;;0.38;0.38;;;;;;;18.03;48.24;93738.50;5087233;28;20020;-35
2022/10/04 07:22:49;;;;;;;;;;;;;;;17.79;46.20;93741.63;5085670;28;20044;-35
2022/10/04 07:25:17;;;;;;;0.82;0.82;;;;;;;17.29;47.11;93739.38;5085369;28;19908;-35
2022/10/04 07:31:05;;;;;;;0.40;0.40;;;;;;;17.24;47.95;93739.66;5089611;28;20055;-36
2022/10/04 07:33:35;;;;;;;0.40;0.38;;;;;;;17.46;47.72;93741.28;5062670;28;20041;-35
2022/10/04 07:36:10;;;;;;;0.30;0.30;;;;;;;17.69;47.07;93744.44;5065174;28;20031;-35
2022/10/04 07:38:50;;;;;;;0.20;0.20;;;;;;;17.48;47.71;93760.97;5067634;28;20103;-35
2022/10/04 07:41:27;;;;;;;0.50;0.50;;;;;;;17.25;47.09;93755.81;5065137;28;20063;-35
2022/10/04 07:44:00;;;;;;;0.20;0.20;;;;;;;17.06;48.09;93736.28;5062160;28;20024;-35
2022/10/04 07:46:39;;;;;;;0.50;0.50;;;;;;;16.63;48.87;93748.34;5065057;28;20020;-35
2022/10/04 07:49:12;;;;;;;0.50;0.50;;;;;;;16.17;49.06;93750.28;5086802;28;20420;-35
2022/10/04 07:51:49;;;;;;;0.28;0.28;;;;;;;15.75;50.96;93753.97;5068777;28;20024;-35
2022/10/04 07:54:15;;;;;;;0.30;0.30;;;;;;;15.74;51.67;93752.50;5091308;28;20043;-35
2022/10/04 07:56:58;;;;;;;1.48;0.93;;;;;;;15.78;51.07;93752.09;5086123;28;20028;-35
2022/10/04 07:59:42;;;;;;;0.20;0.20;;;;;;;15.26;50.95;93747.84;5086495;28;20506;-35
2022/10/04 08:02:11;;;;;;;0.35;0.35;;;;;;;15.11;52.19;93757.81;5084036;28;20054;-35
2022/10/04 08:05:16;;;;;;;0.10;0.10;;;;;;;14.69;52.18;93754.31;5083460;28;20077;-35
2022/10/04 08:07:49;;;;;;;0.52;0.52;;;;;;;14.71;50.21;93751.69;5074567;28;20036;-35
2022/10/04 08:10:17;;;;;;;0.35;0.35;;;;;;;14.78;52.11;93755.72;5062649;28;20089;-35
2022/10/04 08:12:50;;;;;;;1.17;0.47;;;;;;;15.03;51.96;93759.19;5086351;28;20077;-35
2022/10/04 08:15:39;;;;;;;0.88;0.55;;;;;;;15.08;52.12;93758.22;5080674;28;20401;-35
2022/10/04 08:18:42;;;;;;;0.20;0.20;;;;;;;15.09;52.53;93765.97;5061419;28;20025;-34
2022/10/04 08:21:09;;;;;;;0.20;0.20;;;;;;;15.00;52.56;93771.47;5090838;28;20028;-34
2022/10/04 08:24:06;;;;;;;0.30;0.30;;;;;;;14.86;54.16;93767.50;5078654;28;20028;-35
2022/10/04 08:26:37;;;;;;;0.22;0.22;;;;;;;14.72;54.15;93775.41;5065731;28;20028;-34
2022/10/04 08:32:18;;;;;;;0.60;0.60;;;;;;;15.00;54.96;93765.91;5083486;28;20427;-35
2022/10/04 08:34:53;;;;;;;0.20;0.20;;;;;;;14.97;54.15;93775.38;5085907;28;20028;-34
2022/10/04 08:37:18;;;;;;;0.25;0.25;;;;;;;14.69;54.44;93765.41;5080171;28;20074;-34
2022/10/04 08:40:11;;;;;;;0.20;0.20;;;;;;;14.81;54.25;93760.84;5090243;28;20028;-35
2022/10/04 08:42:55;;;;;;;0.20;0.20;;;;;;;15.13;52.38;93760.03;5080544;28;20024;-35
2022/10/04 08:45:43;;;;;;;0.20;0.20;;;;;;;15.20;52.71;93764.78;5081038;28;20034;-35
2022/10/04 08:48:17;;;;;;;1.42;1.33;;;;;;;15.26;52.78;93767.31;5047033;28;20067;-35
2022/10/04 08:51:13;;;;;;;0.50;0.50;;;;;;;15.46;53.00;93769.75;5084948;28;20519;-35
2022/10/04 08:53:52;;;;;;;2.67;0.93;;;;;;;15.40;51.69;93769.19;5083565;28;20040;-35
2022/10/04 08:56:37;;;;;;;0.45;0.45;;;;;;;15.47;52.00;93776.75;5063505;28;20586;-35
2022/10/04 08:59:31;;;;;;;0.28;0.28;;;;;;;15.37;52.30;93775.19;5081464;28;20395;-35
2022/10/04 09:02:12;;;;;;;0.20;0.20;;;;;;;15.16;51.91;93779.09;5085542;28;20419;-34
2022/10/04 09:04:40;;;;;;;6.60;1.55;;;;;;;15.08;52.28;93774.91;5084344;28;20385;-34
2022/10/04 09:07:27;;;;;;;0.20;0.20;;;;;;;14.93;53.06;93773.00;5083996;28;20026;-35
2022/10/04 09:10:23;;;;;;;2.20;1.10;;;;;;;14.99;53.81;93790.19;5086398;28;20043;-35
2022/10/04 09:13:24;;;;;;;0.45;0.45;;;;;;;15.14;51.88;93792.81;5085763;28;20403;-35
2022/10/04 09:15:50;;;;;;;0.10;0.10;;;;;;;15.50;51.22;93786.75;5047962;28;20046;-35
2022/10/04 09:18:21;;;;;;;3.47;2.40;;;;;;;15.54;51.19;93795.44;5086027;28;20028;-35
2022/10/04 09:20:55;;;;;;;0.20;0.20;;;;;;;15.12;51.04;93778.75;5079791;28;20031;-35
2022/10/04 09:23:29;;;;;;;0.43;0.43;;;;;;;14.96;51.38;93793.38;5078655;28;20120;-35
2022/10/04 09:26:05;;;;;;;0.30;0.30;;;;;;;14.85;53.06;93807.75;5081630;28;20032;-34
2022/10/04 09:29:17;;;;;;;0.10;0.10;;;;;;;14.66;51.49;93813.06;5080723;28;20040;-35
2022/10/04 09:32:15;;;;;;;0.20;0.20;;;;;;;14.57;53.34;93808.88;5022513;28;20629;-35
2022/10/04 09:34:52;;;;;;;0.20;0.20;;;;;;;14.55;53.21;93810.75;5073439;28;20123;-35
2022/10/04 09:37:42;;;;;;;0.20;0.20;;;;;;;14.70;52.53;93810.63;5078302;28;20097;-35
2022/10/04 09:40:26;;;;;;;0.30;0.28;;;;;;;14.66;51.78;93813.78;5080765;28;20149;-35
2022/10/04 09:43:22;;;;;;;0.10;0.10;;;;;;;14.67;53.05;93812.50;5075963;28;20066;-35
2022/10/04 09:46:15;;;;;;;0.32;0.32;;;;;;;14.58;51.67;93821.44;5064636;28;20086;-34
2022/10/04 09:48:52;;;;;;;0.30;0.30;;;;;;;14.70;51.29;93816.94;5080410;28;20025;-34
2022/10/04 09:51:37;;;;;;;0.68;0.52;;;;;;;14.79;50.62;93816.28;5082401;28;20086;-34
2022/10/04 09:54:10;;;;;;;0.20;0.20;;;;;;;14.70;50.23;93821.75;5082323;28;20613;-35
2022/10/04 09:56:52;;;;;;;0.47;0.47;;;;;;;14.69;50.49;93823.03;5058367;28;20392;-35
2022/10/04 09:59:21;;;;;;;0.47;0.47;;;;;;;14.65;50.15;93819.94;5088579;28;20102;-35
2022/10/04 10:02:39;;;;;;;0.95;0.95;;;;;;;14.54;50.10;93818.34;5085900;28;20115;-35
2022/10/04 10:05:41;;;;;;;0.30;0.25;;;;;;;14.72;50.52;93817.09;5062286;28;20423;-34
2022/10/04 10:08:19;;;;;;;0.10;0.10;;;;;;;14.90;49.92;93824.19;5081878;28;20058;-35
2022/10/04 10:14:07;;;;;;;0.20;0.20;;;;;;;15.06;49.76;93817.19;5075043;28;20051;-35
2022/10/04 10:16:44;;;;;;;0.52;0.52;;;;;;;15.28;49.52;93818.28;5086874;28;20104;-35
2022/10/04 10:19:22;;;;;;;0.20;0.20;;;;;;;15.71;48.97;93817.69;5085132;28;20518;-34
2022/10/04 10:21:54;;;;;;;0.10;0.10;;;;;;;16.27;46.62;93818.66;5087940;28;20572;-34
2022/10/04 10:24:32;;;;;;;0.10;0.10;;;;;;;16.52;45.36;93827.63;5066602;28;20063;-35
2022/10/04 10:27:01;;;;;;;0.20;0.20;;;;;;;16.45;45.62;93822.16;5083330;28;20059;-35
2022/10/04 10:29:38;;;;;;;0.20;0.20;;;;;;;16.59;45.10;93823.28;5086731;28;20060;-35
2022/10/04 10:32:37;;;;;;;1.02;0.95;;;;;;;16.64;45.98;93822.28;5078918;28;20020;-35
2022/10/04 10:35:26;;;;;;;0.13;0.13;;;;;;;16.52;46.21;93822.06;5079848;28;20154;-35
2022/10/04 10:38:24;;;;;;;0.28;0.28;;;;;;;16.52;48.47;93830.41;5066528;28;20572;-35
2022/10/04 10:41:02;;;;;;;0.10;0.10;;;;;;;17.81;44.52;93814.38;5074624;28;20048;-35
2022/10/04 10:43:55;;;;;;;1.65;1.55;;;;;;;17.62;43.77;93822.75;5080589;28;20101;-35
2022/10/04 10:46:51;;;;;;;0.63;0.40;;;;;;;17.58;44.12;93814.81;5082559;28;20027;-35
2022/10/04 10:49:37;;;;;;;0.20;0.20;;;;;;;18.10;44.16;93821.41;5089617;28;20024;-35
2022/10/04 10:52:21;;;;;;;0.40;0.40;;;;;;;19.66;38.84;93816.91;5087409;28;20029;-35
2022/10/04 10:55:11;;;;;;;0.10;0.10;;;;;;;20.50;37.53;93809.03;5090516;28;20031;-35
2022/10/04 10:58:12;;;;;;;0.20;0.20;;;;;;;20.06;36.66;93816.03;5066161;28;20641;-35
2022/10/04 11:01:08;;;;;;;0.10;0.10;;;;;;;19.48;38.93;93809.38;4998769;28;20030;-35
2022/10/04 11:04:01;;;;;;;1.00;0.95;;;;;;;18.76;39.38;93816.31;5062440;28;20110;-35
2022/10/04 11:07:09;;;;;;;0.57;0.57;;;;;;;18.17;42.19;93823.34;5091016;28;20045;-35
2022/10/04 11:10:29;;;;;;;0.20;0.20;;;;;;;17.57;43.70;93823.75;5069670;28;20024;-35
2022/10/04 11:13:29;;;;;;;0.15;0.15;;;;;;;17.11;44.18;93827.31;5077906;28;20090;-35
2022/10/04 11:16:25;;;;;;;0.20;0.20;;;;;;;16.92;44.95;93820.91;5082757;28;20032;-35
2022/10/04 11:19:09;;;;;;;1.20;1.15;;;;;;;17.95;44.86;93815.41;5090714;28;20028;-35
2022/10/04 11:21:35;;;;;;;1.45;0.90;;;;;;;18.16;43.75;93821.13;5079010;28;20024;-35
2022/10/04 11:24:29;;;;;;;0.30;0.30;;;;;;;17.32;44.70;93821.94;5084372;28;20412;-35
2022/10/04 11:27:09;;;;;;;0.30;0.30;;;;;;;16.70;45.06;93827.59;5079399;28;20036;-35
2022/10/04 11:30:13;;;;;;;0.30;0.30;;;;;;;16.40;47.21;93817.56;5071522;28;20100;-35
2022/10/04 11:32:49;;;;;;;0.50;0.50;;;;;;;17.51;45.89;93814.94;5059679;28;20112;-35
2022/10/04 11:35:54;;;;;;;0.20;0.20;;;;;;;18.72;42.25;93813.25;5080711;28;20031;-35
2022/10/04 11:38:20;;;;;;;0.20;0.20;;;;;;;18.71;42.22;93817.38;5074545;28;20035;-35
2022/10/04 11:40:52;;;;;;;8.30;2.45;;;;;;;17.65;42.32;93810.41;5078416;28;20028;-35
2022/10/04 11:43:43;;;;;;;2.28;2.15;;;;;;;17.13;44.63;93815.56;5086266;28;20024;-35
2022/10/04 11:46:50;;;;;;;0.95;0.95;;;;;;;18.03;45.57;93813.19;5080711;28;20039;-34
2022/10/04 11:49:18;;;;;;;0.10;0.10;;;;;;;18.71;43.40;93814.59;4986541;28;20045;-35
2022/10/04 11:52:03;;;;;;;0.30;0.30;;;;;;;18.64;41.40;93818.28;5082467;28;20021;-35
2022/10/04 11:54:46;;;;;;;0.20;0.20;;;;;;;19.06;41.98;93817.69;5091548;28;20546;-35
2022/10/04 11:58:04;;;;;;;0.20;0.20;;;;;;;19.64;40.04;93813.97;5082901;28;20031;-35
2022/10/04 12:01:04;;;;;;;0.30;0.30;;;;;;;20.14;39.83;93819.34;5044088;28;20036;-35
2022/10/04 12:03:54;;;;;;;0.63;0.63;;;;;;;20.12;39.25;93815.72;5029502;28;20505;-35
2022/10/04 12:06:22;;;;;;;0.10;0.10;;;;;;;20.09;39.01;93822.50;5080437;28;20161;-35
2022/10/04 12:09:04;;;;;;;0.10;0.10;;;;;;;19.34;40.20;93819.63;5085786;28;20020;-35
2022/10/04 12:14:48;;;;;;;0.15;0.15;;;;;;;17.87;43.35;93826.72;5085317;28;20077;-35
2022/10/04 12:17:20;;;;;;;0.40;0.40;;;;;;;17.21;44.43;93830.13;5087854;28;20016;-35
2022/10/04 12:20:09;;;;;;;0.10;0.10;;;;;;;16.68;45.94;93817.75;5090877;28;20575;-35
2022/10/04 12:22:53;;;;;;;0.20;0.20;;;;;;;16.42;46.24;93837.22;5067547;28;20108;-35
2022/10/04 12:25:46;;;;;;;0.20;0.20;;;;;;;16.03;47.44;93835.50;5084494;28;20020;-35
2022/10/04 12:28:33;;;;;;;0.30;0.30;;;;;;;15.84;47.90;93842.41;5083299;28;20024;-35
2022/10/04 12:31:15;;;;;;;0.10;0.10;;;;;;;15.65;49.17;93833.91;5080287;28;20143;-35
2022/10/04 12:34:13;;;;;;;0.30;0.30;;;;;;;15.74;49.43;93832.50;5082896;28;20699;-35
2022/10/04 12:37:12;;;;;;;0.60;0.60;;;;;;;15.50;49.73;93822.19;5084481;28;20458;-34
2022/10/04 12:39:47;;;;;;;;;;;;;;;15.92;50.59;93839.53;5087622;28;20016;-35
2022/10/04 12:42:31;;;;;;;0.10;0.10;;;;;;;16.22;48.71;93832.88;5081547;28;19931;-34
2022/10/04 12:45:20;;;;;;;0.10;0.10;;;;;;;16.18;48.35;93833.28;5082512;28;20028;-35